メインページ
METAR-TAF:

METAR-TAF

空港 :

ポンペイ国際空港

ポンペイ島, ミクロネシア

緯度: 06-59N, 経度: 158-12E, 海抜: 2m

現時点の気象観測

当レポートは24分前の21:02(UTC)に作成
西/北西の風 3kt
気温 24°C
湿度 100%
気圧 1010 hPa
視程: 3.2km
高度1500ftの千切れ雲あり, 塔状積雲.
高度12000ftの千切れ雲あり
にわか雨

METAR: PTPN 202102Z 30003KT 2SM SHRA BKN015TCU BKN120 24/24 A2983 RMK TCU ALQDS

時間: 08:26 (21:26 UTC)

予報

当レポートは4時間6分前の17:20(UTC)に作成
予報は20日の 18時(UTC)から 21日の 18時(UTC)まで有効
西/南西の風 5kt
視程: 9.7km
高度1800ftの雲は散在している
高度3500ftの千切れ雲あり
高度10000ftの曇り
小雨
20日の 18時(UTC)から 20日の 22時(UTC)まで一時的に
変向風 10kt
視程: 4.8km
高度1600ftの千切れ雲あり, 積乱雲.
高度2500ftの千切れ雲あり
高度4000ftの曇り
激しい雷雨, 雨
20日の 2300時(UTC)から
西の風 11kt
視程: 9.7km
高度1600ftの雲は散在している
高度3000ftの千切れ雲あり
高度10000ftの曇り
小雨

TAF: PTPN 201720Z 2018/2118 25005KT 6SM -RA SCT018 BKN035 OVC100 TEMPO 2018/2022 VRB10KT 3SM TSRA BKN016CB BKN025 OVC040 FM202300 27011KT 6SM -RA SCT016 BKN030 OVC100

4,000以上の空港の気象観測と天気予報(METAR報とTAF報)

利用可能な観測所は地図上に黄色い丸と赤い丸で示す。

丸の上にカーソルを重ねると観測所名を参照できる。

次にクリックすると気象観測と天気予報を参照できる。

マップの切り替え:黒色「×」印の緑ボタンをクリックして拡大、「-」印の緑ボタンをクリックして縮小、緑色の三角印をクリックして隣りの地図に切り替え


METAR-TAF: